createdAt,value
2022-10-16T00:01:13.040Z,81.29
2022-10-16T00:03:44.150Z,81.37
2022-10-16T00:06:12.214Z,82.22
2022-10-16T00:08:40.444Z,82.56
2022-10-16T00:11:09.309Z,81.22
2022-10-16T00:13:41.981Z,80.99
2022-10-16T00:16:10.270Z,81.08
2022-10-16T00:18:38.520Z,80.07
2022-10-16T00:21:11.659Z,80.36
2022-10-16T00:23:39.395Z,80.22
2022-10-16T00:26:13.452Z,80.43
2022-10-16T00:28:44.206Z,80.61
2022-10-16T00:31:15.452Z,81.67
2022-10-16T00:33:44.165Z,81.50
2022-10-16T00:36:14.655Z,82.63
2022-10-16T00:38:42.480Z,83.59
2022-10-16T00:41:11.613Z,81.59
2022-10-16T00:43:42.985Z,81.15
2022-10-16T00:46:17.654Z,82.31
2022-10-16T00:48:45.645Z,83.26
2022-10-16T00:51:13.184Z,83.92
2022-10-16T00:53:40.996Z,85.46
2022-10-16T00:56:08.798Z,86.87
2022-10-16T00:58:39.293Z,85.19
2022-10-16T01:01:09.065Z,84.49
2022-10-16T01:03:38.515Z,81.90
2022-10-16T01:06:15.798Z,82.42
2022-10-16T01:08:47.341Z,85.01
2022-10-16T01:11:17.627Z,84.81
2022-10-16T01:13:51.847Z,84.83
2022-10-16T01:16:22.082Z,83.50
2022-10-16T01:18:52.800Z,83.53
2022-10-16T01:21:23.663Z,84.63
2022-10-16T01:23:53.314Z,86.33
2022-10-16T01:26:27.035Z,86.79
2022-10-16T01:28:59.826Z,86.04
2022-10-16T01:31:28.162Z,83.97
2022-10-16T01:34:02.799Z,86.25
2022-10-16T01:36:35.559Z,86.18
2022-10-16T01:39:03.942Z,86.05
2022-10-16T01:41:34.970Z,86.51
2022-10-16T01:44:05.277Z,86.24
2022-10-16T01:46:33.178Z,85.42
2022-10-16T01:49:01.453Z,84.58
2022-10-16T01:51:31.543Z,87.04
2022-10-16T01:54:04.208Z,86.84
2022-10-16T01:56:36.578Z,87.39
2022-10-16T01:59:06.546Z,88.43
2022-10-16T02:01:35.362Z,88.06
2022-10-16T02:04:04.793Z,88.00
2022-10-16T02:06:32.963Z,87.67
2022-10-16T02:09:03.524Z,87.21
2022-10-16T02:11:31.069Z,87.39
2022-10-16T02:14:05.137Z,89.39
2022-10-16T02:16:37.811Z,89.18
2022-10-16T02:19:05.975Z,90.69
2022-10-16T02:21:39.330Z,89.29
2022-10-16T02:24:09.307Z,89.84
2022-10-16T02:26:44.147Z,91.22
2022-10-16T02:29:13.726Z,90.87
2022-10-16T02:31:48.310Z,90.68
2022-10-16T02:34:18.318Z,89.52
2022-10-16T02:36:46.171Z,88.80
2022-10-16T02:39:15.086Z,90.39
2022-10-16T02:41:42.692Z,89.86
2022-10-16T02:44:13.774Z,88.94
2022-10-16T02:46:43.825Z,89.34
2022-10-16T02:49:12.975Z,88.61
2022-10-16T02:51:43.607Z,87.99
2022-10-16T02:54:12.445Z,88.36
2022-10-16T02:56:40.014Z,87.63
2022-10-16T02:59:07.718Z,85.18
2022-10-16T03:01:36.861Z,85.50
2022-10-16T03:04:04.853Z,86.37
2022-10-16T03:06:34.375Z,84.94
2022-10-16T03:09:02.145Z,84.70
2022-10-16T03:11:32.481Z,86.07
2022-10-16T03:14:03.911Z,87.08
2022-10-16T03:16:31.529Z,87.72
2022-10-16T03:18:59.132Z,86.04
2022-10-16T03:21:26.738Z,85.71
2022-10-16T03:24:09.864Z,85.81
2022-10-16T03:26:37.439Z,87.08
2022-10-16T03:29:04.989Z,87.45
2022-10-16T03:31:32.804Z,85.12
2022-10-16T03:34:00.441Z,86.03
2022-10-16T03:36:28.069Z,86.86
2022-10-16T03:38:55.660Z,87.83
2022-10-16T03:41:24.862Z,88.10
2022-10-16T03:43:55.024Z,88.59
2022-10-16T03:46:24.560Z,89.06
2022-10-16T03:48:52.121Z,86.31
2022-10-16T03:51:19.934Z,85.47
2022-10-16T03:53:47.581Z,86.42
2022-10-16T03:56:15.343Z,86.52
2022-10-16T03:58:45.098Z,86.28
2022-10-16T04:01:13.006Z,87.20
2022-10-16T04:03:42.673Z,84.96
2022-10-16T04:06:12.097Z,84.65
2022-10-16T04:08:40.214Z,85.25
2022-10-16T04:11:09.158Z,86.73
2022-10-16T04:13:37.582Z,85.94
2022-10-16T04:16:08.574Z,85.79
2022-10-16T04:18:38.127Z,87.15
2022-10-16T04:21:05.790Z,86.16
2022-10-16T04:23:33.658Z,88.60
2022-10-16T04:26:05.363Z,88.34
2022-10-16T04:28:35.966Z,87.73
2022-10-16T04:31:13.034Z,86.32
2022-10-16T04:33:40.742Z,86.70
2022-10-16T04:36:08.690Z,86.37
2022-10-16T04:38:38.433Z,87.90
2022-10-16T04:41:10.377Z,87.14
2022-10-16T04:43:39.842Z,85.31
2022-10-16T04:46:12.406Z,85.46
2022-10-16T04:48:40.912Z,84.67
2022-10-16T04:51:08.643Z,82.86
2022-10-16T04:53:39.383Z,82.09
2022-10-16T04:56:08.786Z,84.58
2022-10-16T04:58:39.260Z,85.13
2022-10-16T05:01:22.393Z,86.15
2022-10-16T05:03:49.940Z,85.31
2022-10-16T05:06:28.424Z,84.00
2022-10-16T05:08:56.257Z,84.39
2022-10-16T05:11:24.141Z,84.65
2022-10-16T05:13:55.098Z,85.85
2022-10-16T05:16:25.480Z,86.05
2022-10-16T05:19:00.040Z,84.84
2022-10-16T05:21:38.574Z,84.72
2022-10-16T05:24:10.269Z,85.82
2022-10-16T05:26:37.997Z,86.54
2022-10-16T05:29:06.141Z,86.09
2022-10-16T05:31:39.213Z,84.60
2022-10-16T05:34:07.141Z,84.27
2022-10-16T05:36:34.730Z,83.50
2022-10-16T05:39:02.383Z,82.55
2022-10-16T05:41:29.997Z,81.64
2022-10-16T05:43:57.598Z,81.28
2022-10-16T05:46:28.108Z,84.39
2022-10-16T05:49:10.312Z,83.83
2022-10-16T05:51:37.916Z,84.13
2022-10-16T05:54:05.585Z,82.83
2022-10-16T05:56:33.247Z,82.79
2022-10-16T05:59:00.915Z,80.84
2022-10-16T06:01:29.814Z,81.63
2022-10-16T06:03:57.423Z,84.60
2022-10-16T06:06:33.914Z,84.22
2022-10-16T06:09:01.589Z,86.29
2022-10-16T06:11:31.976Z,87.70
2022-10-16T06:14:03.070Z,88.47
2022-10-16T06:16:30.728Z,85.06
2022-10-16T06:19:01.465Z,84.24
2022-10-16T06:21:32.498Z,83.26
2022-10-16T06:24:00.525Z,83.82
2022-10-16T06:26:29.117Z,82.25
2022-10-16T06:28:57.754Z,82.63
2022-10-16T06:31:32.565Z,83.45
2022-10-16T06:34:00.553Z,81.58
2022-10-16T06:36:31.607Z,84.07
2022-10-16T06:39:02.369Z,85.73
2022-10-16T06:41:33.036Z,85.33
2022-10-16T06:44:01.170Z,84.99
2022-10-16T06:46:29.034Z,84.19
2022-10-16T06:48:56.554Z,83.54
2022-10-16T06:51:26.919Z,83.61
2022-10-16T06:54:02.763Z,84.09
2022-10-16T06:56:35.333Z,83.01
2022-10-16T06:59:06.327Z,83.46
2022-10-16T07:01:35.925Z,83.81
2022-10-16T07:04:04.107Z,83.08
2022-10-16T07:06:33.354Z,82.36
2022-10-16T07:09:02.854Z,82.58
2022-10-16T07:11:30.829Z,83.63
2022-10-16T07:14:00.215Z,83.83
2022-10-16T07:16:31.729Z,83.08
2022-10-16T07:19:01.511Z,83.96
2022-10-16T07:21:30.040Z,84.35
2022-10-16T07:24:01.258Z,83.17
2022-10-16T07:26:29.285Z,83.39
2022-10-16T07:28:59.814Z,82.69
2022-10-16T07:31:29.183Z,82.89
2022-10-16T07:33:57.211Z,84.91
2022-10-16T07:36:24.801Z,82.46
2022-10-16T07:38:57.114Z,83.17
2022-10-16T07:41:27.723Z,82.47
2022-10-16T07:43:57.414Z,82.60
2022-10-16T07:46:27.536Z,82.30
2022-10-16T07:48:56.531Z,82.85
2022-10-16T07:51:24.831Z,84.57
2022-10-16T07:53:56.130Z,82.78
2022-10-16T07:56:23.890Z,82.68
2022-10-16T07:58:52.262Z,81.64
2022-10-16T08:01:20.290Z,82.00
2022-10-16T08:03:48.782Z,79.01
2022-10-16T08:06:20.726Z,79.80
2022-10-16T08:08:51.451Z,79.03
2022-10-16T08:11:23.880Z,78.03
2022-10-16T08:13:51.467Z,80.04
2022-10-16T08:16:19.310Z,79.96
2022-10-16T08:18:47.300Z,81.34
2022-10-16T08:21:20.201Z,82.27
2022-10-16T08:23:54.643Z,82.85
2022-10-16T08:26:25.812Z,80.80
2022-10-16T08:28:53.789Z,82.45
2022-10-16T08:31:23.816Z,82.09
2022-10-16T08:33:52.700Z,81.96
2022-10-16T08:36:22.903Z,81.90
2022-10-16T08:38:55.344Z,79.94
2022-10-16T08:41:37.984Z,80.93
2022-10-16T08:44:10.001Z,82.70
2022-10-16T08:46:40.238Z,79.82
2022-10-16T08:49:17.038Z,82.06
2022-10-16T08:51:46.853Z,82.17
2022-10-16T08:54:22.134Z,81.47
2022-10-16T08:56:55.889Z,80.25
2022-10-16T08:59:23.582Z,81.37
2022-10-16T09:01:55.469Z,80.62
2022-10-16T09:04:29.174Z,80.00
2022-10-16T09:06:57.031Z,78.79
2022-10-16T09:09:42.449Z,79.19
2022-10-16T09:12:15.059Z,79.38
2022-10-16T09:14:46.042Z,81.51
2022-10-16T09:17:25.614Z,80.39
2022-10-16T09:19:57.339Z,80.06
2022-10-16T09:22:25.862Z,81.86
2022-10-16T09:24:55.922Z,81.01
2022-10-16T09:27:27.377Z,79.69
2022-10-16T09:29:59.599Z,78.39
2022-10-16T09:32:30.327Z,79.55
2022-10-16T09:34:59.598Z,78.18
2022-10-16T09:37:27.405Z,78.97
2022-10-16T09:39:55.551Z,78.90
2022-10-16T09:42:26.212Z,77.90
2022-10-16T09:44:56.096Z,76.23
2022-10-16T09:47:27.450Z,77.45
2022-10-16T09:49:56.136Z,77.14
2022-10-16T09:52:23.917Z,76.60
2022-10-16T09:54:52.430Z,73.89
2022-10-16T09:57:20.340Z,74.77
2022-10-16T09:59:51.131Z,74.81
2022-10-16T10:02:29.334Z,76.58
2022-10-16T10:04:57.132Z,75.84
2022-10-16T10:07:26.566Z,74.69
2022-10-16T10:09:58.858Z,76.46
2022-10-16T10:12:27.458Z,76.31
2022-10-16T10:14:55.418Z,76.79
2022-10-16T10:17:28.062Z,74.68
2022-10-16T10:19:56.602Z,74.68
2022-10-16T10:22:26.769Z,74.93
2022-10-16T10:25:00.505Z,74.41
2022-10-16T10:27:33.818Z,75.10
2022-10-16T10:30:04.101Z,75.59
2022-10-16T10:32:48.056Z,73.43
2022-10-16T10:35:16.929Z,72.39
2022-10-16T10:37:57.608Z,73.05
2022-10-16T10:40:32.399Z,73.89
2022-10-16T10:43:03.946Z,70.45
2022-10-16T10:45:35.327Z,70.39
2022-10-16T10:48:11.644Z,70.29
2022-10-16T10:50:41.296Z,69.25
2022-10-16T10:53:11.753Z,69.50
2022-10-16T10:55:40.409Z,68.10
2022-10-16T10:58:21.762Z,67.80
2022-10-16T11:00:51.225Z,67.28
2022-10-16T11:03:26.587Z,67.79
2022-10-16T11:05:59.771Z,67.76
2022-10-16T11:08:28.714Z,67.27
2022-10-16T11:11:03.075Z,65.54
2022-10-16T11:13:33.191Z,67.88
2022-10-16T11:16:03.544Z,67.21
2022-10-16T11:18:36.223Z,67.58
2022-10-16T11:21:07.886Z,66.61
2022-10-16T11:23:38.828Z,64.42
2022-10-16T11:26:07.707Z,64.41
2022-10-16T11:28:36.551Z,63.98
2022-10-16T11:31:05.125Z,63.91
2022-10-16T11:33:36.127Z,63.37
2022-10-16T11:36:06.331Z,61.81
2022-10-16T11:38:37.273Z,62.01
2022-10-16T11:41:05.908Z,60.89
2022-10-16T11:43:35.242Z,62.05
2022-10-16T11:46:06.556Z,61.87
2022-10-16T11:48:41.422Z,62.08
2022-10-16T11:51:10.786Z,59.62
2022-10-16T11:53:41.814Z,61.11
2022-10-16T11:56:09.496Z,61.28
2022-10-16T11:58:37.864Z,60.87
2022-10-16T12:01:07.611Z,62.30
2022-10-16T12:03:38.759Z,60.36
2022-10-16T12:06:15.744Z,60.25
2022-10-16T12:08:43.432Z,59.53
2022-10-16T12:11:12.015Z,58.76
2022-10-16T12:13:40.352Z,60.94
2022-10-16T12:16:09.333Z,60.60
2022-10-16T12:18:36.949Z,59.18
2022-10-16T12:21:10.332Z,58.12
2022-10-16T12:23:41.788Z,57.24
2022-10-16T12:26:09.350Z,58.61
2022-10-16T12:28:40.227Z,56.76
2022-10-16T12:31:09.470Z,57.21
2022-10-16T12:33:37.637Z,55.79
2022-10-16T12:36:07.497Z,56.11
2022-10-16T12:38:37.647Z,54.52
2022-10-16T12:41:09.285Z,55.98
2022-10-16T12:43:38.593Z,56.58
2022-10-16T12:46:07.403Z,58.67
2022-10-16T12:48:48.658Z,59.33
2022-10-16T12:51:27.433Z,58.59
2022-10-16T12:54:01.681Z,59.00
2022-10-16T12:56:35.882Z,57.74
2022-10-16T12:59:08.493Z,57.81
2022-10-16T13:01:41.944Z,56.50
2022-10-16T13:04:17.815Z,59.16
2022-10-16T13:06:47.379Z,60.21
2022-10-16T13:09:21.418Z,57.97
2022-10-16T13:11:57.609Z,58.85
2022-10-16T13:14:31.066Z,57.77
2022-10-16T13:17:00.238Z,56.55
2022-10-16T13:19:32.840Z,56.46
2022-10-16T13:22:01.760Z,59.65
2022-10-16T13:24:36.919Z,56.78
2022-10-16T13:27:09.870Z,60.51
2022-10-16T13:29:37.719Z,64.36
2022-10-16T13:32:09.346Z,66.03
2022-10-16T13:34:44.077Z,64.89
2022-10-16T13:37:17.713Z,64.82
2022-10-16T13:39:45.554Z,64.69
2022-10-16T13:42:15.113Z,64.47
2022-10-16T13:44:43.231Z,65.49
2022-10-16T13:47:17.806Z,64.94
2022-10-16T13:49:48.416Z,65.27
2022-10-16T13:52:19.937Z,63.78
2022-10-16T13:55:00.884Z,65.48
2022-10-16T13:57:31.659Z,66.42
2022-10-16T13:59:59.572Z,66.26
2022-10-16T14:02:28.809Z,66.23
2022-10-16T14:04:57.166Z,64.53
2022-10-16T14:07:26.259Z,65.31
2022-10-16T14:09:54.490Z,66.48
2022-10-16T14:12:25.517Z,65.93
2022-10-16T14:15:05.584Z,66.25
2022-10-16T14:17:34.305Z,66.33
2022-10-16T14:20:06.459Z,66.79
2022-10-16T14:22:35.271Z,66.99
2022-10-16T14:25:18.395Z,67.76
2022-10-16T14:27:47.099Z,68.15
2022-10-16T14:30:18.921Z,68.45
2022-10-16T14:32:55.257Z,68.26
2022-10-16T14:35:27.436Z,68.38
2022-10-16T14:37:57.734Z,68.08
2022-10-16T14:40:28.366Z,68.63
2022-10-16T14:42:56.230Z,68.64
2022-10-16T14:45:32.457Z,68.65
2022-10-16T14:48:00.841Z,67.75
2022-10-16T14:50:30.752Z,65.50
2022-10-16T14:52:58.461Z,65.71
2022-10-16T14:55:26.417Z,65.81
2022-10-16T14:57:58.247Z,66.90
2022-10-16T15:00:32.650Z,66.96
2022-10-16T15:03:10.637Z,68.06
2022-10-16T15:05:38.753Z,68.20
2022-10-16T15:08:06.623Z,69.17
2022-10-16T15:10:41.810Z,69.13
2022-10-16T15:13:11.390Z,68.81
2022-10-16T15:15:42.834Z,67.87
2022-10-16T15:18:11.010Z,67.16
2022-10-16T15:20:39.470Z,66.46
2022-10-16T15:23:08.169Z,66.15
2022-10-16T15:25:37.359Z,66.79
2022-10-16T15:28:05.503Z,67.22
2022-10-16T15:30:33.857Z,67.63
2022-10-16T15:33:12.405Z,68.38
2022-10-16T15:35:40.524Z,68.94
2022-10-16T15:38:08.193Z,68.57
2022-10-16T15:40:35.964Z,69.08
2022-10-16T15:43:03.525Z,69.09
2022-10-16T15:45:31.071Z,68.62
2022-10-16T15:47:58.729Z,68.81
2022-10-16T15:50:30.058Z,69.42
2022-10-16T15:52:58.005Z,69.16
2022-10-16T15:55:28.329Z,69.46
2022-10-16T15:57:57.501Z,69.20
2022-10-16T16:00:26.595Z,68.75
2022-10-16T16:02:56.984Z,68.30
2022-10-16T16:05:24.551Z,67.72
2022-10-16T16:07:53.772Z,68.35
2022-10-16T16:10:24.374Z,68.41
2022-10-16T16:12:53.560Z,69.45
2022-10-16T16:15:21.786Z,70.51
2022-10-16T16:17:51.667Z,70.85
2022-10-16T16:20:20.701Z,71.21
2022-10-16T16:22:50.427Z,71.52
2022-10-16T16:25:25.577Z,71.98
2022-10-16T16:27:53.143Z,71.97
2022-10-16T16:30:28.052Z,71.76
2022-10-16T16:32:56.009Z,71.26
2022-10-16T16:35:23.581Z,71.18
2022-10-16T16:37:51.159Z,71.05
2022-10-16T16:40:20.359Z,71.78
2022-10-16T16:42:49.530Z,71.73
2022-10-16T16:45:17.372Z,72.34
2022-10-16T16:47:45.184Z,73.20
2022-10-16T16:50:13.421Z,72.75
2022-10-16T16:52:41.560Z,73.43
2022-10-16T16:55:09.623Z,73.45
2022-10-16T16:57:38.744Z,74.42
2022-10-16T17:00:09.911Z,73.72
2022-10-16T17:02:44.072Z,73.47
2022-10-16T17:05:14.639Z,73.44
2022-10-16T17:07:42.179Z,73.82
2022-10-16T17:10:13.108Z,74.73
2022-10-16T17:12:45.631Z,74.36
2022-10-16T17:15:13.346Z,74.22
2022-10-16T17:17:43.798Z,73.72
2022-10-16T17:20:12.805Z,74.24
2022-10-16T17:25:10.094Z,72.94
2022-10-16T17:27:40.436Z,74.31
2022-10-16T17:30:12.723Z,75.82
2022-10-16T17:32:40.312Z,75.85
2022-10-16T17:35:08.768Z,75.33
2022-10-16T17:37:36.661Z,74.91
2022-10-16T17:40:04.368Z,74.55
2022-10-16T17:42:32.085Z,74.26
2022-10-16T17:44:59.690Z,74.66
2022-10-16T17:47:30.001Z,75.07
2022-10-16T17:49:59.733Z,74.36
2022-10-16T17:52:28.984Z,74.45
2022-10-16T17:55:02.674Z,74.67
2022-10-16T17:57:30.289Z,74.52
2022-10-16T17:59:57.866Z,74.37
2022-10-16T18:02:25.755Z,74.31
2022-10-16T18:04:56.743Z,75.09
2022-10-16T18:07:24.534Z,75.03
2022-10-16T18:10:11.320Z,75.37
2022-10-16T18:12:39.612Z,76.97
2022-10-16T18:15:07.733Z,76.13
2022-10-16T18:17:43.188Z,76.33
2022-10-16T18:20:13.399Z,76.36
2022-10-16T18:22:41.396Z,75.94
2022-10-16T18:25:09.318Z,75.65
2022-10-16T18:27:36.855Z,76.27
2022-10-16T18:30:06.726Z,76.25
2022-10-16T18:32:35.889Z,77.77
2022-10-16T18:35:04.786Z,77.26
2022-10-16T18:37:36.566Z,78.21
2022-10-16T18:40:06.627Z,78.33
2022-10-16T18:42:34.966Z,77.56
2022-10-16T18:45:06.957Z,77.08
2022-10-16T18:47:34.926Z,78.99
2022-10-16T18:50:02.884Z,79.80
2022-10-16T18:52:31.455Z,82.00
2022-10-16T18:55:00.670Z,81.97
2022-10-16T18:57:31.724Z,82.19
2022-10-16T19:00:02.157Z,82.45
2022-10-16T19:02:29.844Z,84.00
2022-10-16T19:04:57.697Z,85.02
2022-10-16T19:07:26.016Z,83.81
2022-10-16T19:09:54.861Z,84.99
2022-10-16T19:12:27.113Z,85.79
2022-10-16T19:14:54.868Z,86.36
2022-10-16T19:17:22.849Z,86.47
2022-10-16T19:19:54.470Z,85.68
2022-10-16T19:22:53.705Z,84.94
2022-10-16T19:25:22.305Z,84.36
2022-10-16T19:27:54.328Z,83.77
2022-10-16T19:30:25.296Z,84.84
2022-10-16T19:32:53.287Z,85.34
2022-10-16T19:35:21.222Z,85.31
2022-10-16T19:37:51.120Z,84.39
2022-10-16T19:40:18.662Z,84.57
2022-10-16T19:42:48.509Z,84.45
2022-10-16T19:45:17.482Z,84.48
2022-10-16T19:47:46.938Z,83.38
2022-10-16T19:50:16.271Z,85.01
2022-10-16T19:52:44.259Z,85.87
2022-10-16T19:55:12.027Z,85.69
2022-10-16T19:57:40.004Z,85.29
2022-10-16T20:00:08.388Z,84.53
2022-10-16T20:02:40.962Z,86.19
2022-10-16T20:05:09.131Z,85.74
2022-10-16T20:07:37.371Z,86.54
2022-10-16T20:10:06.073Z,88.14
2022-10-16T20:12:34.044Z,87.39
2022-10-16T20:15:02.117Z,87.28
2022-10-16T20:17:31.035Z,86.95
2022-10-16T20:20:00.416Z,86.52
2022-10-16T20:22:28.163Z,85.82
2022-10-16T20:24:56.012Z,83.64
2022-10-16T20:27:25.808Z,84.97
2022-10-16T20:29:53.931Z,84.28
2022-10-16T20:32:21.613Z,85.22
2022-10-16T20:34:49.684Z,85.52
2022-10-16T20:37:18.867Z,84.52
2022-10-16T20:39:49.095Z,84.43
2022-10-16T20:42:16.744Z,85.22
2022-10-16T20:44:47.900Z,85.03
2022-10-16T20:47:17.059Z,85.23
2022-10-16T20:49:45.205Z,84.82
2022-10-16T20:52:12.862Z,85.50
2022-10-16T20:54:45.853Z,85.81
2022-10-16T20:57:13.379Z,84.93
2022-10-16T20:59:42.541Z,85.61
2022-10-16T21:02:14.208Z,85.13
2022-10-16T21:04:45.292Z,85.53
2022-10-16T21:07:18.389Z,85.25
2022-10-16T21:09:47.663Z,83.91
2022-10-16T21:12:15.611Z,84.61
2022-10-16T21:15:02.380Z,84.58
2022-10-16T21:17:31.758Z,85.51
2022-10-16T21:20:01.713Z,85.19
2022-10-16T21:22:33.460Z,84.35
2022-10-16T21:25:05.498Z,85.00
2022-10-16T21:27:37.184Z,85.02
2022-10-16T21:30:08.299Z,84.40
2022-10-16T21:32:36.207Z,84.82
2022-10-16T21:35:04.505Z,84.71
2022-10-16T21:37:32.066Z,84.18
2022-10-16T21:42:46.528Z,83.24
2022-10-16T21:45:14.322Z,83.53
2022-10-16T21:47:44.503Z,84.30
2022-10-16T21:50:12.127Z,83.51
2022-10-16T21:52:39.668Z,85.04
2022-10-16T21:55:10.662Z,84.81
2022-10-16T21:57:39.214Z,85.97
2022-10-16T22:00:10.923Z,85.90
2022-10-16T22:02:38.749Z,85.70
2022-10-16T22:05:06.608Z,86.37
2022-10-16T22:07:34.263Z,85.06
2022-10-16T22:10:01.853Z,85.94
2022-10-16T22:12:30.013Z,85.75
2022-10-16T22:15:01.104Z,85.83
2022-10-16T22:17:30.455Z,84.64
2022-10-16T22:19:58.280Z,85.55
2022-10-16T22:22:28.338Z,86.33
2022-10-16T22:24:58.480Z,86.12
2022-10-16T22:27:31.393Z,86.40
2022-10-16T22:29:59.028Z,86.51
2022-10-16T22:32:26.657Z,85.01
2022-10-16T22:34:56.042Z,85.11
2022-10-16T22:37:23.863Z,84.08
2022-10-16T22:39:57.787Z,83.81
2022-10-16T22:42:28.242Z,83.12
2022-10-16T22:44:57.130Z,83.21
2022-10-16T22:47:25.071Z,82.25
2022-10-16T22:49:54.597Z,82.54
2022-10-16T22:52:23.939Z,82.05
2022-10-16T22:55:01.822Z,83.86
2022-10-16T22:57:33.525Z,83.88
2022-10-16T23:00:04.663Z,81.30
2022-10-16T23:02:32.403Z,81.14
2022-10-16T23:05:00.051Z,83.27
2022-10-16T23:07:29.291Z,81.95
2022-10-16T23:09:59.429Z,78.82
2022-10-16T23:12:29.344Z,80.65
2022-10-16T23:15:00.763Z,80.46
2022-10-16T23:17:28.550Z,82.18
2022-10-16T23:19:56.151Z,80.89
2022-10-16T23:22:25.387Z,79.38
2022-10-16T23:24:56.918Z,79.94
2022-10-16T23:27:24.468Z,80.12
2022-10-16T23:29:54.821Z,80.28
2022-10-16T23:32:22.556Z,79.63
2022-10-16T23:34:50.130Z,80.98
2022-10-16T23:37:17.770Z,81.59
2022-10-16T23:39:45.339Z,81.91
2022-10-16T23:42:20.298Z,81.33
2022-10-16T23:44:50.704Z,81.65
2022-10-16T23:47:18.348Z,82.84
2022-10-16T23:49:48.377Z,82.84
2022-10-16T23:52:16.313Z,83.20
2022-10-16T23:54:43.937Z,83.17
2022-10-16T23:57:12.201Z,82.82
2022-10-16T23:59:43.618Z,82.56
